Mineral, Texas
Current Conditions -  °F | °C
As of 4:35 PM on Friday 31 Oct 2014 (Local Time) from KBEA Reporting Station
Clear Clear  
Wind Chill: 79°   Ceiling: Unl
Heat Index: 79°   Visibility: 10mi
Dew Point: 41°   Wind: 12mph
Humidity: 26%   Direction: 20°NNE
Pressure: 30.16"   Gusts: NA
Location:  28.55°N, 97.9°W
Report Text: KBEA 312135Z AUTO 02010KT 10SM CLR 26/05 A3016 RMK AO2 P0001 T02600050
Loading
Personal Weather Stations






























Interactive Weather Map
Tropical Storm Tracking
New forecast layout! Learn more

10-Day Weather Forecast

Advertisements
Track Severe Weather on mobile